»·PEaware :: SWA1078 KSFO-KLAS

SWA1078 :: KSFO-KLAS

FLIGHT INFORMATION

Flight Status: Arrived
Operator:
Southwest Airlines
More flights by this operator :: More flights under this callsign
Pilot: Utku A. (15598)
Aircraft: BOEING 737-300
(B733)
More flights by this aircraft type
Origin: KSFO San Francisco Intl
United States
Destination: KLAS McCarran Intl
United States
More flights between these airports :: More routes between these airports
Route: +SSTIK3 NTELL Q162 ESSAA BTY SUNST4
File this flight plan on PilotEdge
Remarks: Shared cockpit flight IXEG737
Altitude:
(Current/Filed)
37,000ft
Speed:
(Current/Filed)
430kts
Departed: 22-Jul-18 08:23 PM
Arrived: 22-Jul-18 09:39 PM
Distance/Time
Traveled:
359nm/1:16
Distance/Time
To Go:
Arrived

Flight Plot

Page will automatically refresh every two minutes.

Flight plan parsing failed; only flown route is shown


Map Options




Map Legend


Flown Route
Filed Route
Departure Airport
Arrival Airport
Navaid (VOR, NDB)
Fix

Horizontal Profiles

Position Reports

Time Latitude Longitude Heading Altitude Ground
Speed
22-Jul-18 19:46 37.612663 -122.384666 6 30ft 0kts
22-Jul-18 19:47 37.612663 -122.384666 6 30ft 0kts
22-Jul-18 19:48 37.612663 -122.384666 6 30ft 0kts
22-Jul-18 19:49 37.612663 -122.384666 6 30ft 0kts
22-Jul-18 19:50 37.612663 -122.384666 6 30ft 0kts
22-Jul-18 19:51 37.612663 -122.384666 6 30ft 0kts
22-Jul-18 19:52 37.612663 -122.384666 6 30ft 0kts
22-Jul-18 19:53 37.612663 -122.384666 6 30ft 0kts
22-Jul-18 19:54 37.612663 -122.384666 6 30ft 0kts
22-Jul-18 19:55 37.612663 -122.384666 6 30ft 0kts
22-Jul-18 19:56 37.612663 -122.384666 6 30ft 0kts
22-Jul-18 19:57 37.612663 -122.384666 6 30ft 0kts
22-Jul-18 19:58 37.612663 -122.384666 6 30ft 0kts
22-Jul-18 19:59 37.612663 -122.384666 6 30ft 0kts
22-Jul-18 20:00 37.612663 -122.384666 6 30ft 0kts
22-Jul-18 20:01 37.612663 -122.384666 6 30ft 0kts
22-Jul-18 20:02 37.612663 -122.384666 6 30ft 0kts
22-Jul-18 20:03 37.612663 -122.384666 6 30ft 0kts
22-Jul-18 20:04 37.612663 -122.384666 6 30ft 0kts
22-Jul-18 20:05 37.612663 -122.384666 6 30ft 0kts
22-Jul-18 20:06 37.612663 -122.384666 6 30ft 0kts
22-Jul-18 20:07 37.612663 -122.384666 6 30ft 0kts
22-Jul-18 20:08 37.612663 -122.384666 6 30ft 0kts
22-Jul-18 20:09 37.612663 -122.384666 6 30ft 0kts
22-Jul-18 20:10 37.612663 -122.384666 6 30ft 0kts
22-Jul-18 20:11 37.612663 -122.384666 6 30ft 0kts
22-Jul-18 20:12 37.612663 -122.384666 6 30ft 0kts
22-Jul-18 20:13 37.612663 -122.384666 6 30ft 0kts
22-Jul-18 20:14 37.612296 -122.384716 6 30ft 2kts
22-Jul-18 20:15 37.611701 -122.384796 5 30ft 2kts
22-Jul-18 20:16 37.611233 -122.385183 75 30ft 2kts
22-Jul-18 20:17 37.611161 -122.385922 104 30ft 2kts
22-Jul-18 20:18 37.611366 -122.386449 119 30ft 0kts
22-Jul-18 20:19 37.611365 -122.386449 119 30ft 0kts
22-Jul-18 20:20 37.611214 -122.386234 144 30ft 5kts
22-Jul-18 20:21 37.609229 -122.383714 124 30ft 0kts
22-Jul-18 20:22 37.609194 -122.383650 124 30ft 0kts
22-Jul-18 20:23 37.609039 -122.382174 29 28ft 0kts
22-Jul-18 20:24 37.629149 -122.367740 29 764ft 155kts
22-Jul-18 20:25 37.672279 -122.360063 344 2614ft 187kts
22-Jul-18 20:26 37.707423 -122.404095 252 4797ft 211kts
22-Jul-18 20:27 37.651786 -122.433441 192 7105ft 254kts
22-Jul-18 20:28 37.579819 -122.448558 189 9618ft 290kts
22-Jul-18 20:29 37.500193 -122.459930 168 10440ft 285kts
22-Jul-18 20:30 37.442973 -122.392352 127 13366ft 293kts
22-Jul-18 20:31 37.402940 -122.296089 105 15072ft 347kts
22-Jul-18 20:32 37.379472 -122.176431 106 17702ft 362kts
22-Jul-18 20:33 37.354679 -122.051633 106 20130ft 376kts
22-Jul-18 20:34 37.328698 -121.921702 106 22354ft 389kts
22-Jul-18 20:35 37.301894 -121.788410 106 24377ft 402kts
22-Jul-18 20:36 37.273993 -121.650634 107 26260ft 414kts
22-Jul-18 20:37 37.245074 -121.508770 107 28011ft 425kts
22-Jul-18 20:38 37.215838 -121.366216 107 30091ft 420kts
22-Jul-18 20:39 37.186815 -121.225409 108 31881ft 417kts
22-Jul-18 20:40 37.157831 -121.085943 108 33596ft 410kts
22-Jul-18 20:41 37.129140 -120.948794 107 35034ft 404kts
22-Jul-18 20:42 37.100556 -120.813019 107 36073ft 403kts
22-Jul-18 20:43 37.071848 -120.677482 107 36912ft 404kts
22-Jul-18 20:44 37.042606 -120.540299 107 37035ft 411kts
22-Jul-18 20:45 37.013119 -120.402773 108 37026ft 411kts
22-Jul-18 20:46 36.983509 -120.265261 108 37038ft 413kts
22-Jul-18 20:47 36.953398 -120.126513 108 37039ft 415kts
22-Jul-18 20:48 36.923003 -119.987354 109 37039ft 415kts
22-Jul-18 20:49 36.911073 -119.846376 70 37019ft 431kts
22-Jul-18 20:50 36.959117 -119.709021 70 37024ft 431kts
22-Jul-18 20:51 37.004272 -119.570917 71 37022ft 429kts
22-Jul-18 20:52 37.049022 -119.433299 71 37022ft 425kts
22-Jul-18 20:53 37.092879 -119.297649 71 37010ft 422kts
22-Jul-18 20:54 37.136382 -119.162480 71 37204ft 419kts
22-Jul-18 20:55 37.180025 -119.026361 71 37483ft 421kts
22-Jul-18 20:56 37.224007 -118.888509 71 37440ft 432kts
22-Jul-18 20:57 37.268791 -118.747508 70 37450ft 441kts
22-Jul-18 20:58 37.288293 -118.598896 87 37311ft 431kts
22-Jul-18 20:59 37.301775 -118.449455 86 37226ft 430kts
22-Jul-18 21:00 37.315175 -118.302165 87 37211ft 430kts
22-Jul-18 21:01 37.328535 -118.152987 87 37232ft 430kts
22-Jul-18 21:02 37.341699 -118.004006 86 37231ft 431kts
22-Jul-18 21:03 37.348813 -117.855020 100 37229ft 424kts
22-Jul-18 21:04 37.334467 -117.707666 99 37233ft 426kts
22-Jul-18 21:05 37.321366 -117.560994 99 37254ft 425kts
22-Jul-18 21:06 37.308024 -117.413592 99 37328ft 426kts
22-Jul-18 21:07 37.280225 -117.276129 131 37377ft 411kts
22-Jul-18 21:08 37.209351 -117.163714 131 36155ft 408kts
22-Jul-18 21:09 37.140187 -117.050364 131 34684ft 414kts
22-Jul-18 21:10 37.069302 -116.936329 140 33186ft 415kts
22-Jul-18 21:11 36.972053 -116.866040 154 31531ft 407kts
22-Jul-18 21:12 36.873150 -116.797696 153 29822ft 413kts
22-Jul-18 21:13 36.778226 -116.717942 133 28145ft 424kts
22-Jul-18 21:14 36.701450 -116.606250 133 26467ft 428kts
22-Jul-18 21:15 36.624375 -116.496402 133 24762ft 407kts
22-Jul-18 21:16 36.552601 -116.394539 132 23051ft 385kts
22-Jul-18 21:17 36.483239 -116.296187 133 21407ft 378kts
22-Jul-18 21:18 36.417326 -116.203656 133 20399ft 341kts
22-Jul-18 21:19 36.356210 -116.117771 132 18995ft 331kts
22-Jul-18 21:20 36.296016 -116.033278 132 17603ft 325kts
22-Jul-18 21:21 36.236737 -115.950268 132 16221ft 319kts
22-Jul-18 21:22 36.187743 -115.860865 112 16072ft 322kts
22-Jul-18 21:23 36.156178 -115.761568 112 15841ft 296kts
22-Jul-18 21:24 36.126113 -115.667943 112 14658ft 290kts
22-Jul-18 21:25 36.096270 -115.575788 112 13470ft 287kts
22-Jul-18 21:26 36.066915 -115.485116 112 12279ft 283kts
22-Jul-18 21:27 36.037845 -115.395479 112 11064ft 276kts
22-Jul-18 21:28 36.025928 -115.303306 95 10109ft 274kts
22-Jul-18 21:29 36.019456 -115.212235 95 8998ft 249kts
22-Jul-18 21:30 36.013700 -115.128154 95 8416ft 244kts
22-Jul-18 21:31 36.008397 -115.045724 94 7964ft 243kts
22-Jul-18 21:32 36.003506 -114.963283 94 6909ft 241kts
22-Jul-18 21:33 36.000725 -114.881810 75 5258ft 231kts
22-Jul-18 21:34 36.046291 -114.846400 351 4647ft 208kts
22-Jul-18 21:35 36.073824 -114.889471 263 4433ft 164kts
22-Jul-18 21:36 36.073349 -114.944619 270 4144ft 158kts
22-Jul-18 21:37 36.073511 -115.000725 270 3862ft 166kts
22-Jul-18 21:38 36.073522 -115.055571 270 3202ft 158kts
22-Jul-18 21:39 36.073662 -115.108671 271 2346ft 155kts
22-Jul-18 21:40 36.073717 -115.147541 278 2109ft 30kts
22-Jul-18 21:41 36.075540 -115.151444 333 2121ft 7kts
22-Jul-18 21:42 36.078434 -115.151023 356 2114ft 19kts
22-Jul-18 21:43 36.081705 -115.149407 96 2101ft 15kts
22-Jul-18 21:44 36.081673 -115.148134 66 2096ft 0kts
22-Jul-18 21:45 36.081673 -115.148134 66 2096ft 0kts

Navigation Log

Ident Type
Flight plan parsing failed, navigation log unavailable